Aviation Digital Data Service (ADDS)

Output produced by METARs form (0816 UTC 14 December 2017)
found at http://aviationweather.gov/adds/metars/
 
KAGC 140757Z 1408/1506 24013G25KT 3SM -SN OVC025 
     TEMPO 1408/1409 27018G40KT 1SM -SN BKN010 
     FM140900 25008KT 5SM -SN OVC015 
     FM141200 29008KT P6SM OVC015 
     FM141500 33010KT P6SM BKN025 
     FM150300 28005KT P6SM BKN015